createdAt,value
2019-03-10T00:00:17.600Z,1.80
2019-03-10T00:02:46.275Z,2.22
2019-03-10T00:05:14.579Z,2.47
2019-03-10T00:07:42.834Z,1.60
2019-03-10T00:10:11.428Z,2.30
2019-03-10T00:12:39.703Z,2.27
2019-03-10T00:15:10.672Z,2.25
2019-03-10T00:17:39.202Z,2.17
2019-03-10T00:20:09.118Z,1.92
2019-03-10T00:22:37.471Z,1.92
2019-03-10T00:25:08.304Z,1.62
2019-03-10T00:27:39.399Z,1.77
2019-03-10T00:30:13.033Z,3.33
2019-03-10T00:32:41.321Z,2.30
2019-03-10T00:35:09.676Z,1.50
2019-03-10T00:37:37.918Z,1.52
2019-03-10T00:40:21.554Z,2.12
2019-03-10T00:43:25.015Z,2.15
2019-03-10T00:46:26.769Z,2.17
2019-03-10T00:49:13.193Z,1.87
2019-03-10T00:52:14.417Z,2.12
2019-03-10T00:54:42.726Z,1.30
2019-03-10T00:57:11.080Z,2.42
2019-03-10T00:59:39.338Z,2.22
2019-03-10T01:02:07.950Z,2.67
2019-03-10T01:04:36.488Z,1.62
2019-03-10T01:07:05.010Z,2.77
2019-03-10T01:09:33.349Z,1.62
2019-03-10T01:12:01.929Z,2.45
2019-03-10T01:14:30.247Z,1.30
2019-03-10T01:16:58.798Z,1.67
2019-03-10T01:19:27.199Z,1.87
2019-03-10T01:21:55.646Z,2.05
2019-03-10T01:24:24.245Z,1.90
2019-03-10T01:26:59.767Z,2.02
2019-03-10T01:29:28.026Z,1.30
2019-03-10T01:32:22.251Z,1.98
2019-03-10T01:34:59.575Z,1.67
2019-03-10T01:37:27.872Z,1.87
2019-03-10T01:39:56.386Z,1.62
2019-03-10T01:42:24.657Z,1.40
2019-03-10T01:44:52.910Z,3.83
2019-03-10T01:47:21.191Z,5.22
2019-03-10T01:49:49.449Z,5.90
2019-03-10T01:52:17.693Z,6.12
2019-03-10T01:54:45.976Z,5.95
2019-03-10T01:57:15.080Z,5.05
2019-03-10T01:59:43.615Z,3.35
2019-03-10T02:02:12.140Z,4.83
2019-03-10T02:04:40.688Z,2.45
2019-03-10T02:07:09.214Z,2.62
2019-03-10T02:09:37.498Z,2.37
2019-03-10T02:12:05.760Z,2.52
2019-03-10T02:14:34.312Z,4.37
2019-03-10T02:17:02.836Z,2.37
2019-03-10T02:19:31.110Z,2.05
2019-03-10T02:21:59.630Z,3.02
2019-03-10T02:24:27.904Z,2.58
2019-03-10T02:26:56.158Z,1.32
2019-03-10T02:29:24.461Z,1.42
2019-03-10T02:31:53.074Z,1.10
2019-03-10T02:34:21.622Z,0.40
2019-03-10T02:36:49.871Z,1.02
2019-03-10T02:39:18.451Z,0.60
2019-03-10T02:41:46.770Z,3.70
2019-03-10T02:44:18.126Z,1.05
2019-03-10T02:46:46.382Z,0.80
2019-03-10T02:49:14.667Z,0.50
2019-03-10T02:51:43.006Z,1.45
2019-03-10T02:54:11.283Z,2.50
2019-03-10T02:56:39.831Z,3.95
2019-03-10T02:59:08.121Z,1.82
2019-03-10T03:01:37.315Z,2.62
2019-03-10T03:04:05.598Z,2.08
2019-03-10T03:06:33.869Z,2.37
2019-03-10T03:09:02.399Z,3.65
2019-03-10T03:11:30.669Z,2.80
2019-03-10T03:13:59.046Z,2.77
2019-03-10T03:16:28.113Z,2.77
2019-03-10T03:18:56.483Z,2.83
2019-03-10T03:21:24.760Z,3.05
2019-03-10T03:23:53.094Z,3.77
2019-03-10T03:26:21.730Z,4.80
2019-03-10T03:28:50.334Z,3.95
2019-03-10T03:31:18.912Z,4.10
2019-03-10T03:33:47.184Z,3.75
2019-03-10T03:36:27.049Z,4.55
2019-03-10T03:39:02.204Z,5.53
2019-03-10T03:41:30.496Z,4.67
2019-03-10T03:43:58.754Z,6.62
2019-03-10T03:46:27.038Z,5.75
2019-03-10T03:48:55.306Z,5.35
2019-03-10T03:51:23.676Z,6.55
2019-03-10T03:53:52.045Z,6.30
2019-03-10T03:56:20.327Z,6.47
2019-03-10T03:58:48.760Z,7.28
2019-03-10T04:01:27.738Z,6.83
2019-03-10T04:03:55.997Z,7.45
2019-03-10T04:06:24.544Z,7.08
2019-03-10T04:08:52.829Z,7.53
2019-03-10T04:11:21.452Z,8.63
2019-03-10T04:13:49.716Z,8.88
2019-03-10T04:16:17.996Z,10.03
2019-03-10T04:18:46.265Z,8.40
2019-03-10T04:21:14.641Z,8.53
2019-03-10T04:23:42.910Z,7.75
2019-03-10T04:26:11.260Z,6.97
2019-03-10T04:28:39.518Z,6.80
2019-03-10T04:31:07.807Z,8.30
2019-03-10T04:33:36.139Z,7.20
2019-03-10T04:36:04.508Z,8.15
2019-03-10T04:38:32.763Z,8.13
2019-03-10T04:41:01.038Z,6.45
2019-03-10T04:43:29.316Z,6.42
2019-03-10T04:45:57.577Z,6.12
2019-03-10T04:48:26.119Z,6.08
2019-03-10T04:50:54.653Z,6.55
2019-03-10T04:53:23.216Z,4.42
2019-03-10T04:56:08.608Z,5.30
2019-03-10T04:58:38.514Z,6.53
2019-03-10T05:01:07.070Z,6.00
2019-03-10T05:03:35.352Z,7.40
2019-03-10T05:06:03.608Z,7.47
2019-03-10T05:08:31.913Z,6.65
2019-03-10T05:11:00.528Z,7.47
2019-03-10T05:13:29.099Z,8.10
2019-03-10T05:15:57.359Z,7.62
2019-03-10T05:18:25.634Z,7.70
2019-03-10T05:20:53.890Z,8.48
2019-03-10T05:23:39.451Z,8.80
2019-03-10T05:26:08.035Z,6.55
2019-03-10T05:28:39.452Z,5.83
2019-03-10T05:31:07.722Z,6.33
2019-03-10T05:33:35.988Z,5.42
2019-03-10T05:36:04.272Z,5.45
2019-03-10T05:38:32.791Z,4.80
2019-03-10T05:41:01.087Z,5.45
2019-03-10T05:43:29.339Z,5.00
2019-03-10T05:45:57.626Z,4.15
2019-03-10T05:48:25.886Z,3.75
2019-03-10T05:50:54.446Z,3.77
2019-03-10T05:53:22.773Z,4.08
2019-03-10T05:55:51.313Z,4.62
2019-03-10T05:58:19.585Z,4.35
2019-03-10T06:00:47.891Z,4.30
2019-03-10T06:03:16.415Z,4.70
2019-03-10T06:05:44.679Z,4.80
2019-03-10T06:08:13.044Z,6.67
2019-03-10T06:10:41.315Z,5.50
2019-03-10T06:13:09.586Z,4.30
2019-03-10T06:15:41.166Z,4.67
2019-03-10T06:18:13.475Z,3.55
2019-03-10T06:20:39.436Z,3.40
2019-03-10T06:23:13.449Z,3.05
2019-03-10T06:25:41.710Z,3.47
2019-03-10T06:28:10.271Z,2.17
2019-03-10T06:30:38.527Z,2.50
2019-03-10T06:33:06.851Z,2.35
2019-03-10T06:35:35.397Z,2.17
2019-03-10T06:38:03.656Z,1.87
2019-03-10T06:40:32.707Z,1.70
2019-03-10T06:43:01.324Z,1.80
2019-03-10T06:45:31.708Z,1.57
2019-03-10T06:48:00.050Z,1.92
2019-03-10T06:50:28.592Z,1.70
2019-03-10T06:52:56.856Z,2.40
2019-03-10T06:55:25.429Z,1.70
2019-03-10T06:57:54.022Z,1.30
2019-03-10T07:00:22.836Z,2.02
2019-03-10T07:02:51.372Z,1.20
2019-03-10T07:05:19.780Z,1.25
2019-03-10T07:07:48.372Z,1.27
2019-03-10T07:10:16.782Z,1.75
2019-03-10T07:12:45.039Z,2.02
2019-03-10T07:15:13.924Z,0.88
2019-03-10T07:17:42.270Z,0.80
2019-03-10T07:20:16.078Z,0.80
2019-03-10T07:22:44.364Z,1.40
2019-03-10T07:25:12.610Z,0.88
2019-03-10T07:27:51.430Z,3.02
2019-03-10T07:30:36.541Z,0.80
2019-03-10T07:35:53.825Z,0.70
2019-03-10T07:38:38.855Z,1.67
2019-03-10T07:41:14.939Z,1.45
2019-03-10T07:44:07.466Z,1.20
2019-03-10T07:46:37.667Z,2.90
2019-03-10T07:49:19.812Z,1.10
2019-03-10T07:51:49.719Z,2.08
2019-03-10T07:54:19.922Z,0.80
2019-03-10T07:57:06.892Z,1.02
2019-03-10T07:59:42.871Z,1.22
2019-03-10T08:02:21.631Z,1.00
2019-03-10T08:05:06.693Z,0.60
2019-03-10T08:07:39.291Z,1.17
2019-03-10T08:10:28.479Z,0.82
2019-03-10T08:13:10.351Z,1.25
2019-03-10T08:15:41.126Z,1.10
2019-03-10T08:18:29.404Z,3.22
2019-03-10T08:20:59.337Z,3.45
2019-03-10T08:23:29.235Z,3.87
2019-03-10T08:26:17.481Z,2.00
2019-03-10T08:29:00.524Z,8.13
2019-03-10T08:31:45.382Z,7.53
2019-03-10T08:34:31.828Z,2.80
2019-03-10T08:37:04.664Z,4.65
2019-03-10T08:39:52.861Z,2.52
2019-03-10T08:42:38.030Z,1.30
2019-03-10T08:47:39.585Z,0.70
2019-03-10T08:50:13.373Z,0.70
2019-03-10T08:52:55.628Z,1.27
2019-03-10T08:55:31.469Z,1.37
2019-03-10T08:58:13.442Z,3.65
2019-03-10T09:00:46.301Z,2.65
2019-03-10T09:03:25.106Z,4.17
2019-03-10T09:06:06.888Z,9.13
2019-03-10T09:08:43.187Z,0.80
2019-03-10T09:11:13.112Z,1.32
2019-03-10T09:13:45.730Z,1.95
2019-03-10T09:16:15.714Z,3.45
2019-03-10T09:19:00.734Z,7.22
2019-03-10T09:21:33.497Z,4.47
2019-03-10T09:24:06.217Z,1.27
2019-03-10T09:26:36.187Z,1.95
2019-03-10T09:29:17.993Z,2.55
2019-03-10T09:31:54.764Z,1.60
2019-03-10T09:34:27.515Z,6.70
2019-03-10T09:37:13.663Z,2.05
2019-03-10T09:39:49.624Z,2.27
2019-03-10T09:42:35.899Z,4.20
2019-03-10T09:45:08.573Z,3.37
2019-03-10T09:47:47.926Z,1.75
2019-03-10T09:50:17.855Z,1.65
2019-03-10T09:53:00.372Z,2.10
2019-03-10T09:55:42.192Z,2.90
2019-03-10T09:58:21.104Z,3.08
2019-03-10T10:00:54.688Z,3.27
2019-03-10T10:03:24.857Z,1.80
2019-03-10T10:06:03.847Z,1.65
2019-03-10T10:08:50.315Z,1.30
2019-03-10T10:11:32.947Z,1.22
2019-03-10T10:14:05.819Z,1.20
2019-03-10T10:16:41.823Z,2.00
2019-03-10T10:19:14.456Z,1.05
2019-03-10T10:21:47.194Z,1.98
2019-03-10T10:24:33.861Z,6.00
2019-03-10T10:27:03.827Z,9.98
2019-03-10T10:29:39.808Z,2.55
2019-03-10T10:32:19.038Z,6.05
2019-03-10T10:34:57.821Z,3.33
2019-03-10T10:37:44.599Z,1.27
2019-03-10T10:40:14.847Z,2.05
2019-03-10T10:43:02.648Z,1.30
2019-03-10T10:45:32.557Z,1.20
2019-03-10T10:48:02.488Z,1.17
2019-03-10T10:50:53.368Z,1.40
2019-03-10T10:53:41.333Z,2.12
2019-03-10T10:56:11.233Z,1.90
2019-03-10T11:01:33.523Z,3.20
2019-03-10T11:04:05.864Z,1.25
2019-03-10T11:06:36.055Z,2.33
2019-03-10T11:09:07.607Z,1.70
2019-03-10T11:11:42.034Z,2.42
2019-03-10T11:14:28.123Z,8.13
2019-03-10T11:16:58.304Z,1.40
2019-03-10T11:19:43.630Z,4.97
2019-03-10T11:22:13.540Z,1.98
2019-03-10T11:24:46.447Z,2.17
2019-03-10T11:27:19.046Z,1.62
2019-03-10T11:29:49.350Z,1.60
2019-03-10T11:32:42.083Z,2.25
2019-03-10T11:35:28.663Z,4.83
2019-03-10T11:37:58.573Z,3.02
2019-03-10T11:40:34.171Z,2.12
2019-03-10T11:43:22.711Z,1.27
2019-03-10T11:46:03.966Z,1.40
2019-03-10T11:48:50.140Z,1.98
2019-03-10T11:51:25.818Z,1.85
2019-03-10T11:53:55.744Z,1.60
2019-03-10T11:56:31.701Z,2.02
2019-03-10T11:59:04.705Z,1.10
2019-03-10T12:01:34.717Z,2.02
2019-03-10T12:04:21.099Z,0.93
2019-03-10T12:06:51.061Z,1.70
2019-03-10T12:09:22.353Z,1.80
2019-03-10T12:11:50.636Z,1.45
2019-03-10T12:14:18.912Z,2.87
2019-03-10T12:16:50.676Z,1.05
2019-03-10T12:19:18.934Z,1.20
2019-03-10T12:21:47.211Z,0.80
2019-03-10T12:24:15.813Z,1.70
2019-03-10T12:26:44.173Z,1.27
2019-03-10T12:29:13.291Z,0.70
2019-03-10T12:31:41.847Z,1.37
2019-03-10T12:34:10.116Z,0.85
2019-03-10T12:36:38.690Z,0.70
2019-03-10T12:39:07.684Z,3.60
2019-03-10T12:41:36.054Z,1.02
2019-03-10T12:44:04.578Z,2.50
2019-03-10T12:46:32.864Z,0.80
2019-03-10T12:49:01.209Z,2.33
2019-03-10T12:51:30.015Z,2.87
2019-03-10T12:53:58.276Z,0.98
2019-03-10T12:56:26.839Z,1.25
2019-03-10T12:58:55.110Z,0.80
2019-03-10T13:01:23.418Z,0.82
2019-03-10T13:03:58.729Z,1.17
2019-03-10T13:06:21.780Z,1.37
2019-03-10T13:08:50.072Z,2.35
2019-03-10T13:11:18.345Z,1.10
2019-03-10T13:13:46.991Z,0.93
2019-03-10T13:16:15.260Z,1.17
2019-03-10T13:18:43.610Z,0.88
2019-03-10T13:21:11.887Z,0.50
2019-03-10T13:23:40.545Z,1.87
2019-03-10T13:26:08.896Z,0.95
2019-03-10T13:28:37.458Z,1.20
2019-03-10T13:31:05.989Z,0.75
2019-03-10T13:33:35.555Z,1.47
2019-03-10T13:36:04.036Z,0.78
2019-03-10T13:38:32.345Z,0.78
2019-03-10T13:41:02.479Z,1.30
2019-03-10T13:43:31.015Z,1.12
2019-03-10T13:46:02.052Z,0.90
2019-03-10T13:48:30.650Z,0.90
2019-03-10T13:50:58.962Z,1.35
2019-03-10T13:53:27.524Z,0.95
2019-03-10T13:55:55.787Z,0.35
2019-03-10T13:58:37.893Z,0.70
2019-03-10T14:01:06.498Z,0.70
2019-03-10T14:03:35.055Z,2.77
2019-03-10T14:06:04.447Z,1.10
2019-03-10T14:08:33.102Z,0.65
2019-03-10T14:11:01.664Z,0.55
2019-03-10T14:13:29.930Z,2.02
2019-03-10T14:15:58.216Z,0.60
2019-03-10T14:18:26.479Z,0.72
2019-03-10T14:20:54.763Z,0.80
2019-03-10T14:23:23.032Z,0.45
2019-03-10T14:25:51.318Z,1.75
2019-03-10T14:28:22.083Z,0.82
2019-03-10T14:30:49.579Z,2.02
2019-03-10T14:33:17.850Z,0.72
2019-03-10T14:35:46.133Z,3.02
2019-03-10T14:38:14.487Z,0.75
2019-03-10T14:40:43.051Z,0.80
2019-03-10T14:43:11.324Z,0.82
2019-03-10T14:45:39.599Z,1.40
2019-03-10T14:48:07.896Z,1.70
2019-03-10T14:50:42.493Z,1.00
2019-03-10T14:53:11.027Z,1.35
2019-03-10T14:55:39.324Z,0.62
2019-03-10T14:58:07.840Z,1.47
2019-03-10T15:00:36.397Z,1.57
2019-03-10T15:03:04.687Z,1.17
2019-03-10T15:05:33.042Z,1.67
2019-03-10T15:08:01.310Z,3.02
2019-03-10T15:10:29.898Z,1.80
2019-03-10T15:12:58.255Z,2.22
2019-03-10T15:15:26.561Z,1.52
2019-03-10T15:17:54.833Z,1.60
2019-03-10T15:20:23.126Z,2.67
2019-03-10T15:22:51.394Z,3.40
2019-03-10T15:25:20.622Z,2.12
2019-03-10T15:27:49.175Z,5.35
2019-03-10T15:30:19.790Z,2.50
2019-03-10T15:32:48.064Z,2.80
2019-03-10T15:35:16.640Z,3.33
2019-03-10T15:37:44.995Z,3.55
2019-03-10T15:40:19.377Z,1.90
2019-03-10T15:42:47.741Z,3.52
2019-03-10T15:45:16.963Z,2.00
2019-03-10T15:47:45.268Z,2.50
2019-03-10T15:50:22.403Z,1.90
2019-03-10T15:52:50.698Z,3.33
2019-03-10T15:55:18.968Z,3.67
2019-03-10T15:57:50.474Z,2.10
2019-03-10T16:00:20.254Z,3.12
2019-03-10T16:02:48.675Z,3.67
2019-03-10T16:05:17.234Z,3.92
2019-03-10T16:07:47.669Z,3.27
2019-03-10T16:10:16.108Z,3.10
2019-03-10T16:12:44.659Z,2.65
2019-03-10T16:15:15.271Z,1.98
2019-03-10T16:17:45.816Z,2.35
2019-03-10T16:20:14.729Z,3.37
2019-03-10T16:22:43.105Z,0.93
2019-03-10T16:25:18.755Z,2.05
2019-03-10T16:27:49.746Z,2.33
2019-03-10T16:30:22.707Z,5.25
2019-03-10T16:32:51.259Z,3.25
2019-03-10T16:35:21.946Z,4.67
2019-03-10T16:37:49.832Z,2.83
2019-03-10T16:40:18.917Z,2.65
2019-03-10T16:42:47.214Z,4.35
2019-03-10T16:45:19.004Z,4.42
2019-03-10T16:47:48.142Z,4.33
2019-03-10T16:50:18.916Z,3.15
2019-03-10T16:52:47.214Z,4.40
2019-03-10T16:55:15.763Z,3.60
2019-03-10T16:57:44.057Z,5.10
2019-03-10T17:00:12.459Z,4.70
2019-03-10T17:02:43.068Z,3.95
2019-03-10T17:05:15.583Z,3.15
2019-03-10T17:07:43.052Z,4.35
2019-03-10T17:10:19.296Z,4.47
2019-03-10T17:12:47.749Z,5.70
2019-03-10T17:15:20.174Z,3.27
2019-03-10T17:17:48.454Z,7.30
2019-03-10T17:20:17.748Z,5.75
2019-03-10T17:22:46.357Z,4.42
2019-03-10T17:25:16.648Z,6.45
2019-03-10T17:27:44.991Z,5.35
2019-03-10T17:30:21.306Z,7.35
2019-03-10T17:32:49.847Z,4.03
2019-03-10T17:35:19.022Z,7.50
2019-03-10T17:37:48.787Z,4.35
2019-03-10T17:40:22.412Z,7.90
2019-03-10T17:42:50.780Z,11.08
2019-03-10T17:45:19.805Z,6.05
2019-03-10T17:47:48.446Z,5.62
2019-03-10T17:50:18.456Z,5.10
2019-03-10T17:52:49.117Z,8.53
2019-03-10T17:55:22.403Z,7.45
2019-03-10T17:57:50.665Z,5.10
2019-03-10T18:00:27.189Z,6.42
2019-03-10T18:02:55.543Z,9.65
2019-03-10T18:05:25.043Z,5.65
2019-03-10T18:07:53.303Z,7.35
2019-03-10T18:10:21.881Z,7.58
2019-03-10T18:12:50.142Z,7.30
2019-03-10T18:15:19.160Z,6.40
2019-03-10T18:17:47.705Z,12.88
2019-03-10T18:20:21.545Z,7.37
2019-03-10T18:22:49.886Z,11.33
2019-03-10T18:25:21.300Z,8.65
2019-03-10T18:27:49.814Z,7.15
2019-03-10T18:30:26.440Z,9.63
2019-03-10T18:32:54.974Z,9.83
2019-03-10T18:35:23.260Z,9.28
2019-03-10T18:37:51.584Z,9.58
2019-03-10T18:40:23.562Z,13.65
2019-03-10T18:42:51.912Z,8.15
2019-03-10T18:45:20.447Z,8.98
2019-03-10T18:47:48.747Z,9.53
2019-03-10T18:50:18.428Z,10.50
2019-03-10T18:52:46.777Z,9.63
2019-03-10T18:55:15.952Z,13.30
2019-03-10T18:57:44.315Z,10.75
2019-03-10T19:00:23.614Z,10.93
2019-03-10T19:02:54.887Z,12.40
2019-03-10T19:05:23.409Z,11.70
2019-03-10T19:07:51.683Z,13.60
2019-03-10T19:10:19.964Z,12.23
2019-03-10T19:12:48.606Z,11.78
2019-03-10T19:15:25.124Z,9.83
2019-03-10T19:17:59.287Z,10.53
2019-03-10T19:20:27.552Z,10.48
2019-03-10T19:22:55.917Z,11.63
2019-03-10T19:25:24.197Z,11.60
2019-03-10T19:27:55.319Z,11.33
2019-03-10T19:30:24.446Z,9.80
2019-03-10T19:32:52.707Z,15.65
2019-03-10T19:35:21.246Z,14.07
2019-03-10T19:37:49.512Z,12.85
2019-03-10T19:40:22.624Z,13.68
2019-03-10T19:42:50.959Z,9.90
2019-03-10T19:45:24.041Z,10.32
2019-03-10T19:47:54.324Z,7.80
2019-03-10T19:50:27.411Z,8.60
2019-03-10T19:52:55.277Z,14.15
2019-03-10T19:55:23.827Z,9.88
2019-03-10T19:57:52.182Z,8.63
2019-03-10T20:00:21.108Z,9.40
2019-03-10T20:02:49.371Z,9.40
2019-03-10T20:05:19.471Z,11.78
2019-03-10T20:07:47.814Z,7.78
2019-03-10T20:10:20.108Z,7.17
2019-03-10T20:12:48.370Z,14.53
2019-03-10T20:15:26.258Z,14.15
2019-03-10T20:17:54.513Z,8.15
2019-03-10T20:20:36.535Z,9.18
2019-03-10T20:23:04.798Z,7.50
2019-03-10T20:25:33.371Z,6.83
2019-03-10T20:28:01.712Z,7.87
2019-03-10T20:30:30.270Z,6.78
2019-03-10T20:32:58.553Z,5.58
2019-03-10T20:35:26.911Z,7.00
2019-03-10T20:37:55.230Z,7.95
2019-03-10T20:40:27.503Z,4.72
2019-03-10T20:42:55.760Z,4.35
2019-03-10T20:45:24.909Z,3.95
2019-03-10T20:47:56.048Z,6.30
2019-03-10T20:50:23.633Z,2.95
2019-03-10T20:52:52.155Z,5.80
2019-03-10T20:55:21.360Z,5.85
2019-03-10T20:57:49.688Z,4.35
2019-03-10T21:00:23.504Z,4.25
2019-03-10T21:02:51.780Z,6.60
2019-03-10T21:05:20.031Z,4.40
2019-03-10T21:07:48.304Z,5.33
2019-03-10T21:10:23.292Z,7.80
2019-03-10T21:12:51.653Z,3.85
2019-03-10T21:15:25.987Z,2.90
2019-03-10T21:17:53.570Z,4.00
2019-03-10T21:20:26.150Z,8.90
2019-03-10T21:22:54.774Z,4.47
2019-03-10T21:25:28.202Z,8.20
2019-03-10T21:27:57.316Z,7.62
2019-03-10T21:30:28.237Z,6.60
2019-03-10T21:32:56.507Z,10.85
2019-03-10T21:35:25.060Z,8.23
2019-03-10T21:37:53.399Z,8.50
2019-03-10T21:40:24.384Z,9.50
2019-03-10T21:42:52.733Z,13.68
2019-03-10T21:45:23.051Z,10.45
2019-03-10T21:47:51.306Z,8.48
2019-03-10T21:50:19.859Z,9.30
2019-03-10T21:52:48.222Z,11.08
2019-03-10T21:55:19.161Z,11.30
2019-03-10T21:57:53.378Z,10.80
2019-03-10T22:00:21.918Z,7.20
2019-03-10T22:02:53.158Z,12.88
2019-03-10T22:05:21.422Z,12.98
2019-03-10T22:07:49.710Z,18.02
2019-03-10T22:10:27.659Z,9.05
2019-03-10T22:12:51.419Z,12.03
2019-03-10T22:15:20.999Z,13.93
2019-03-10T22:17:49.267Z,13.05
2019-03-10T22:20:18.189Z,14.93
2019-03-10T22:22:50.049Z,12.33
2019-03-10T22:25:18.701Z,15.93
2019-03-10T22:27:47.042Z,11.75
2019-03-10T22:30:22.439Z,9.78
2019-03-10T22:32:50.971Z,14.23
2019-03-10T22:35:19.267Z,11.73
2019-03-10T22:37:47.521Z,8.88
2019-03-10T22:40:16.954Z,14.83
2019-03-10T22:42:45.303Z,13.50
2019-03-10T22:45:15.605Z,18.00
2019-03-10T22:47:44.152Z,10.48
2019-03-10T22:50:16.099Z,14.05
2019-03-10T22:52:44.470Z,15.35
2019-03-10T22:55:13.744Z,12.07
2019-03-10T22:57:42.305Z,14.10
2019-03-10T23:00:19.137Z,16.97
2019-03-10T23:02:47.642Z,11.48
2019-03-10T23:05:15.910Z,13.83
2019-03-10T23:07:44.199Z,13.20
2019-03-10T23:10:14.078Z,9.45
2019-03-10T23:12:42.428Z,12.07
2019-03-10T23:15:12.884Z,10.80
2019-03-10T23:17:41.157Z,13.93
2019-03-10T23:20:15.630Z,15.63
2019-03-10T23:22:44.065Z,12.50
2019-03-10T23:25:12.335Z,11.70
2019-03-10T23:27:40.685Z,13.10
2019-03-10T23:30:15.049Z,17.17
2019-03-10T23:32:46.067Z,14.83
2019-03-10T23:35:14.340Z,14.63
2019-03-10T23:37:42.688Z,10.50
2019-03-10T23:40:13.328Z,15.20
2019-03-10T23:42:41.598Z,13.03
2019-03-10T23:45:14.800Z,13.88
2019-03-10T23:47:43.058Z,13.75
2019-03-10T23:50:15.867Z,11.30
2019-03-10T23:52:44.128Z,14.83
2019-03-10T23:55:13.153Z,12.60
2019-03-10T23:57:41.425Z,13.68
